Time;durP1;ratioP1;P1;durP2;ratioP2;P2;SDS_P1;SDS_P2;PMS_P1;PMS_P2;Temp;Humidity;BMP_temperature;BMP_pressure;BME280_temperature;BME280_humidity;BME280_pressure;Samples;Min_cycle;Max_cycle;Signal;HPM_P1;HPM_P2
2022/01/25 00:09:20;;;;;;;13.52;6.88;;;;;;;;;;2106694;28;20129;-50
2022/01/25 00:25:11;;;;;;;11.93;5.57;;;;;;;;;;2119200;28;20502;-49
2022/01/25 00:26:19;;;;;;;13.02;5.85;;;;;;;;;;2122658;28;20107;-49
2022/01/25 00:27:40;;;;;;;12.95;6.97;;;;;;;;;;2119895;27;20553;-50
2022/01/25 00:28:46;;;;;;;13.23;5.93;;;;;;;;;;2122959;28;20133;-49
2022/01/25 00:30:00;;;;;;;12.32;6.30;;;;;;;;;;2122522;27;20047;-49
2022/01/25 00:31:09;;;;;;;14.07;6.25;;;;;;;;;;2120810;28;20047;-49
2022/01/25 00:32:11;;;;;;;15.68;6.32;;;;;;;;;;2122907;28;20130;-49
2022/01/25 00:33:12;;;;;;;13.57;7.30;;;;;;;;;;2119697;27;20475;-49
2022/01/25 00:34:13;;;;;;;14.02;6.13;;;;;;;;;;2116656;28;20040;-49
2022/01/25 00:35:14;;;;;;;15.40;7.35;;;;;;;;;;2114424;27;20150;-49
2022/01/25 00:36:16;;;;;;;12.95;6.95;;;;;;;;;;2119664;27;20051;-50
2022/01/25 00:37:18;;;;;;;;;;;;;;;;;;2123181;28;20130;-50
2022/01/25 00:38:20;;;;;;;10.43;4.85;;;;;;;;;;2123598;27;20006;-50
2022/01/25 00:39:21;;;;;;;12.02;5.20;;;;;;;;;;2114157;28;20065;-51
2022/01/25 00:40:22;;;;;;;9.52;5.03;;;;;;;;;;2114337;28;20055;-49
2022/01/25 00:41:24;;;;;;;13.32;5.97;;;;;;;;;;2117921;27;20384;-47
2022/01/25 00:42:25;;;;;;;13.13;5.93;;;;;;;;;;2122671;28;20627;-47
2022/01/25 00:43:27;;;;;;;11.25;5.97;;;;;;;;;;2122313;28;20051;-47
2022/01/25 00:44:34;;;;;;;;;;;;;;;;;;2118123;28;20051;-46
2022/01/25 00:45:35;;;;;;;11.52;5.13;;;;;;;;;;2122609;28;19920;-45
2022/01/25 00:46:37;;;;;;;8.95;5.13;;;;;;;;;;2122886;27;20079;-46
2022/01/25 00:47:41;;;;;;;15.02;6.43;;;;;;;;;;2120925;28;20047;-47
2022/01/25 00:48:44;;;;;;;16.85;7.90;;;;;;;;;;2122602;28;20074;-46
2022/01/25 00:49:51;;;;;;;12.40;7.53;;;;;;;;;;2119948;27;20050;-46
2022/01/25 00:51:02;;;;;;;12.55;7.40;;;;;;;;;;2114104;28;20083;-46
2022/01/25 00:52:19;;;;;;;15.00;7.95;;;;;;;;;;2115676;27;20174;-46
2022/01/25 00:54:43;;;;;;;12.65;5.85;;;;;;;;;;2114268;28;20131;-47
2022/01/25 00:55:44;;;;;;;17.65;7.45;;;;;;;;;;2115643;27;20084;-46
2022/01/25 00:56:46;;;;;;;13.48;7.20;;;;;;;;;;2114213;28;20052;-46
2022/01/25 00:57:47;;;;;;;13.35;7.20;;;;;;;;;;2113451;27;20138;-46
2022/01/25 00:58:48;;;;;;;15.80;8.35;;;;;;;;;;2119285;28;20456;-45
2022/01/25 00:59:50;;;;;;;12.07;6.78;;;;;;;;;;2122526;28;20049;-47
2022/01/25 01:00:50;;;;;;;16.52;6.45;;;;;;;;;;2120776;27;20624;-46
2022/01/25 01:01:53;;;;;;;14.05;7.03;;;;;;;;;;2115165;28;20048;-46
2022/01/25 01:02:54;;;;;;;15.55;7.00;;;;;;;;;;2114370;28;20051;-46
2022/01/25 01:03:56;;;;;;;13.32;6.93;;;;;;;;;;2118405;27;20103;-46
2022/01/25 01:04:57;;;;;;;15.45;7.40;;;;;;;;;;2122528;28;20103;-49
2022/01/25 01:05:58;;;;;;;16.67;6.90;;;;;;;;;;2122631;28;20130;-48
2022/01/25 01:07:02;;;;;;;12.75;6.13;;;;;;;;;;2119066;27;20043;-48
2022/01/25 01:08:03;;;;;;;14.60;6.60;;;;;;;;;;2114143;28;20075;-48
2022/01/25 01:09:05;;;;;;;14.52;8.07;;;;;;;;;;2115925;27;20135;-49
2022/01/25 01:10:07;;;;;;;13.55;7.10;;;;;;;;;;2119967;28;20043;-48
2022/01/25 01:11:12;;;;;;;16.27;7.10;;;;;;;;;;2122464;28;20074;-49
2022/01/25 01:12:19;;;;;;;14.85;8.20;;;;;;;;;;2118548;27;20246;-48
2022/01/25 01:13:49;;;;;;;16.27;8.07;;;;;;;;;;2114045;28;20575;-49
2022/01/25 01:15:00;;;;;;;12.27;5.57;;;;;;;;;;2115600;28;20130;-49
2022/01/25 01:16:28;;;;;;;12.57;6.78;;;;;;;;;;2113999;28;20511;-49
2022/01/25 01:28:51;;;;;;;12.77;6.57;;;;;;;;;;2115807;27;20131;-48
2022/01/25 01:29:53;;;;;;;11.57;5.53;;;;;;;;;;2113956;28;20126;-49
2022/01/25 01:31:01;;;;;;;13.20;5.90;;;;;;;;;;2115342;27;20484;-49
2022/01/25 01:32:17;;;;;;;12.95;6.05;;;;;;;;;;2115089;28;20051;-49
2022/01/25 01:33:51;;;;;;;11.95;5.90;;;;;;;;;;2113899;28;20484;-48
2022/01/25 01:35:32;;;;;;;11.65;6.30;;;;;;;;;;2119359;28;20086;-52
2022/01/25 01:38:17;;;;;;;11.73;6.00;;;;;;;;;;2119653;28;20083;-53
2022/01/25 01:40:54;;;;;;;14.52;5.90;;;;;;;;;;2118979;28;20031;-49
2022/01/25 01:43:19;;;;;;;12.48;6.13;;;;;;;;;;2116585;28;20134;-51
2022/01/25 01:44:21;;;;;;;11.90;5.82;;;;;;;;;;2122442;28;20049;-52
2022/01/25 01:45:36;;;;;;;13.60;6.18;;;;;;;;;;2122090;27;20038;-48
2022/01/25 01:46:42;;;;;;;13.80;6.32;;;;;;;;;;2113799;28;20050;-50
2022/01/25 01:47:47;;;;;;;14.73;7.38;;;;;;;;;;2114037;28;20143;-50
2022/01/25 01:48:52;;;;;;;13.05;6.60;;;;;;;;;;2117062;27;20130;-48
2022/01/25 01:49:55;;;;;;;14.18;7.63;;;;;;;;;;2113771;28;20425;-50
2022/01/25 01:51:03;;;;;;;11.98;6.50;;;;;;;;;;2116062;27;20072;-49
2022/01/25 01:52:04;;;;;;;14.20;6.47;;;;;;;;;;2119987;28;20043;-49
2022/01/25 01:53:06;;;;;;;15.82;7.88;;;;;;;;;;2122425;27;20099;-49
2022/01/25 01:54:10;;;;;;;15.02;6.35;;;;;;;;;;2120707;27;20498;-49
2022/01/25 01:55:12;;;;;;;13.77;6.80;;;;;;;;;;2115261;28;20480;-50
2022/01/25 01:56:13;;;;;;;;;;;;;;;;;;2115667;28;20135;-51
2022/01/25 01:57:15;;;;;;;11.32;5.65;;;;;;;;;;2120022;27;19923;-49
2022/01/25 01:58:16;;;;;;;16.08;6.53;;;;;;;;;;2123674;28;20074;-50
2022/01/25 01:59:17;;;;;;;13.45;6.45;;;;;;;;;;2124448;27;20563;-49
2022/01/25 02:00:21;;;;;;;11.90;5.30;;;;;;;;;;2119877;28;20472;-51
2022/01/25 02:01:24;;;;;;;13.82;6.40;;;;;;;;;;2118510;28;20762;-49
2022/01/25 02:02:25;;;;;;;14.35;6.30;;;;;;;;;;2117251;27;20043;-50
2022/01/25 02:03:26;;;;;;;14.35;6.97;;;;;;;;;;2122345;28;20438;-49
2022/01/25 02:04:28;;;;;;;14.63;7.33;;;;;;;;;;2123782;28;20093;-50
2022/01/25 02:05:29;;;;;;;15.18;6.30;;;;;;;;;;2122063;27;20354;-49
2022/01/25 02:06:31;;;;;;;18.75;8.27;;;;;;;;;;2115172;28;20051;-52
2022/01/25 02:07:32;;;;;;;18.17;8.40;;;;;;;;;;2115131;28;20096;-51
2022/01/25 02:08:34;;;;;;;15.68;7.95;;;;;;;;;;2120058;27;20500;-50
2022/01/25 02:09:34;;;;;;;18.25;7.57;;;;;;;;;;2123801;28;20399;-49
2022/01/25 02:10:36;;;;;;;13.73;5.97;;;;;;;;;;2123260;27;20055;-52
2022/01/25 02:11:37;;;;;;;15.50;7.20;;;;;;;;;;2121009;28;20483;-49
2022/01/25 02:12:40;;;;;;;15.80;7.68;;;;;;;;;;2123801;28;20047;-49
2022/01/25 02:13:42;;;;;;;15.43;7.07;;;;;;;;;;2123408;27;20043;-49
2022/01/25 02:14:43;;;;;;;15.82;6.78;;;;;;;;;;2121404;28;20039;-50
2022/01/25 02:15:46;;;;;;;15.68;7.22;;;;;;;;;;2123580;28;20074;-49
2022/01/25 02:17:03;;;;;;;15.48;7.47;;;;;;;;;;2121189;27;20044;-51
2022/01/25 02:23:37;;;;;;;13.80;6.32;;;;;;;;;;2116074;28;20460;-52
2022/01/25 02:24:38;;;;;;;14.38;6.70;;;;;;;;;;2123705;28;20126;-52
2022/01/25 02:25:39;;;;;;;17.20;7.30;;;;;;;;;;2118547;27;20040;-50
2022/01/25 02:26:40;;;;;;;16.73;8.07;;;;;;;;;;2115208;28;20135;-50
2022/01/25 02:27:41;;;;;;;14.23;7.47;;;;;;;;;;2116061;27;20047;-50
2022/01/25 02:28:43;;;;;;;15.70;7.82;;;;;;;;;;2122281;28;20096;-50
2022/01/25 02:29:45;;;;;;;18.35;7.38;;;;;;;;;;2123617;28;20346;-49
2022/01/25 02:30:46;;;;;;;17.85;8.80;;;;;;;;;;2121295;27;20055;-49
2022/01/25 02:31:47;;;;;;;15.93;7.93;;;;;;;;;;2115093;28;20054;-50
2022/01/25 02:32:48;;;;;;;19.30;7.35;;;;;;;;;;2115192;28;20313;-49
2022/01/25 02:33:50;;;;;;;17.90;7.53;;;;;;;;;;2120053;27;20051;-49
2022/01/25 02:34:50;;;;;;;18.65;8.52;;;;;;;;;;2123672;28;20097;-49
2022/01/25 02:35:52;;;;;;;17.30;7.97;;;;;;;;;;2124171;27;20104;-50
2022/01/25 02:36:57;;;;;;;13.85;7.57;;;;;;;;;;2116808;28;20403;-49
2022/01/25 02:37:58;;;;;;;17.23;7.75;;;;;;;;;;2115008;28;20127;-49
2022/01/25 02:39:00;;;;;;;15.23;8.35;;;;;;;;;;2117107;27;20351;-50
2022/01/25 02:40:02;;;;;;;15.18;7.18;;;;;;;;;;2122320;28;20043;-49
2022/01/25 02:41:03;;;;;;;17.40;8.13;;;;;;;;;;2123448;28;20079;-50
2022/01/25 02:42:04;;;;;;;18.38;8.45;;;;;;;;;;2120254;27;20035;-50
2022/01/25 02:43:05;;;;;;;;;;;;;;;;;;2115489;28;20049;-50
2022/01/25 02:44:08;;;;;;;17.20;7.15;;;;;;;;;;2115296;28;20376;-46
2022/01/25 02:45:15;;;;;;;16.75;7.65;;;;;;;;;;2117204;27;20488;-46
2022/01/25 02:48:29;;;;;;;18.02;9.43;;;;;;;;;;2123417;28;20043;-47
2022/01/25 02:49:02;;;;;;;18.05;7.63;;;;;;;;;;2115116;28;20176;-48
2022/01/25 02:50:03;;;;;;;;;;;;;;;;;;2117328;27;20184;-47
2022/01/25 02:51:04;;;;;;;18.75;7.38;;;;;;;;;;2115722;28;20348;-46
2022/01/25 02:52:06;;;;;;;19.23;8.23;;;;;;;;;;2114931;28;20404;-47
2022/01/25 02:53:08;;;;;;;18.88;8.38;;;;;;;;;;2116823;27;20108;-48
2022/01/25 02:54:09;;;;;;;18.83;8.15;;;;;;;;;;2121060;28;20459;-47
2022/01/25 02:55:11;;;;;;;19.70;9.13;;;;;;;;;;2123580;28;20125;-47
2022/01/25 02:56:12;;;;;;;20.40;7.43;;;;;;;;;;2119430;27;20046;-47
2022/01/25 02:57:13;;;;;;;;;;;;;;;;;;2123700;28;20480;-47
2022/01/25 02:58:15;;;;;;;18.25;7.93;;;;;;;;;;2123328;28;19930;-46
2022/01/25 02:59:16;;;;;;;16.30;7.80;;;;;;;;;;2120204;27;20043;-47
2022/01/25 03:00:18;;;;;;;21.48;9.65;;;;;;;;;;2123433;28;20043;-47
2022/01/25 03:01:20;;;;;;;22.73;10.10;;;;;;;;;;2119092;27;20087;-47
2022/01/25 03:02:21;;;;;;;24.98;11.90;;;;;;;;;;2119279;28;20764;-47
2022/01/25 03:03:23;;;;;;;23.90;11.77;;;;;;;;;;2123283;28;20055;-46
2022/01/25 03:04:24;;;;;;;23.48;11.63;;;;;;;;;;2122612;27;20043;-46
2022/01/25 03:05:25;;;;;;;25.42;11.23;;;;;;;;;;2120280;27;20047;-47
2022/01/25 03:06:26;;;;;;;24.75;11.20;;;;;;;;;;2123581;28;20085;-49
2022/01/25 03:07:28;;;;;;;28.20;13.23;;;;;;;;;;2121171;27;20131;-50
2022/01/25 03:08:30;;;;;;;22.73;10.68;;;;;;;;;;2114990;28;20050;-49
2022/01/25 03:09:31;;;;;;;22.15;10.13;;;;;;;;;;2115017;28;20079;-49
2022/01/25 03:10:34;;;;;;;27.20;11.77;;;;;;;;;;2118782;27;20347;-49
2022/01/25 03:11:34;;;;;;;23.08;10.85;;;;;;;;;;2114791;28;20831;-49
2022/01/25 03:12:41;;;;;;;20.93;9.97;;;;;;;;;;2115294;27;20044;-50
2022/01/25 03:13:50;;;;;;;25.83;9.82;;;;;;;;;;2119650;28;20138;-50
2022/01/25 03:15:11;;;;;;;23.70;10.15;;;;;;;;;;2123315;28;20631;-49
2022/01/25 03:16:18;;;;;;;17.52;8.85;;;;;;;;;;2120027;27;20126;-49
2022/01/25 03:17:25;;;;;;;20.05;9.40;;;;;;;;;;2123261;28;20043;-49
2022/01/25 03:18:43;;;;;;;22.15;9.15;;;;;;;;;;2123954;27;20118;-49
2022/01/25 03:19:50;;;;;;;19.98;9.05;;;;;;;;;;2122020;28;20138;-49
2022/01/25 03:21:00;;;;;;;22.13;8.80;;;;;;;;;;2114745;28;20156;-49
2022/01/25 03:22:06;;;;;;;19.15;8.52;;;;;;;;;;2119948;27;20150;-51
2022/01/25 03:23:18;;;;;;;19.50;8.25;;;;;;;;;;2122974;28;20393;-53
2022/01/25 03:24:19;;;;;;;20.98;9.05;;;;;;;;;;2121206;27;20049;-52
2022/01/25 03:25:20;;;;;;;20.27;10.38;;;;;;;;;;2122062;28;20126;-49
2022/01/25 03:26:22;;;;;;;20.95;10.50;;;;;;;;;;2123167;28;20053;-50
2022/01/25 03:27:23;;;;;;;18.70;8.77;;;;;;;;;;2121491;27;20135;-51
2022/01/25 03:28:24;;;;;;;22.38;10.50;;;;;;;;;;2123058;28;20092;-50
2022/01/25 03:29:26;;;;;;;21.98;10.65;;;;;;;;;;2123023;28;20180;-49
2022/01/25 03:30:27;;;;;;;18.05;9.68;;;;;;;;;;2118140;27;20138;-49
2022/01/25 03:31:28;;;;;;;19.50;9.27;;;;;;;;;;2114664;28;20082;-49
2022/01/25 03:32:29;;;;;;;19.23;9.05;;;;;;;;;;2116025;27;20052;-49
2022/01/25 03:33:30;;;;;;;20.23;9.38;;;;;;;;;;2119486;27;20043;-49
2022/01/25 03:34:31;;;;;;;19.92;9.48;;;;;;;;;;2123258;28;20049;-49
2022/01/25 03:35:32;;;;;;;16.90;8.67;;;;;;;;;;2120855;28;20090;-49
2022/01/25 03:36:34;;;;;;;18.92;8.48;;;;;;;;;;2121157;28;20171;-49
2022/01/25 03:37:34;;;;;;;19.17;9.45;;;;;;;;;;2123048;28;20506;-50
2022/01/25 03:38:37;;;;;;;17.90;8.30;;;;;;;;;;2119605;27;20050;-48
2022/01/25 03:39:38;;;;;;;15.27;7.90;;;;;;;;;;2114513;28;20127;-49
2022/01/25 03:40:39;;;;;;;20.08;8.57;;;;;;;;;;2114655;28;20048;-50
2022/01/25 03:41:41;;;;;;;16.77;7.90;;;;;;;;;;2119159;27;20039;-46
2022/01/25 03:42:44;;;;;;;18.15;8.35;;;;;;;;;;2114708;28;20047;-46
2022/01/25 03:43:51;;;;;;;18.35;7.88;;;;;;;;;;2114650;27;20075;-46
2022/01/25 03:44:53;;;;;;;17.92;8.75;;;;;;;;;;2115380;28;20059;-47
2022/01/25 03:46:01;;;;;;;16.95;8.13;;;;;;;;;;2114585;28;20581;-47
2022/01/25 03:47:07;;;;;;;15.95;7.63;;;;;;;;;;2115842;27;20126;-47
2022/01/25 03:50:47;;;;;;;11.82;5.95;;;;;;;;;;2115332;28;20040;-47
2022/01/25 03:51:49;;;;;;;14.02;6.78;;;;;;;;;;2114516;28;20622;-47
2022/01/25 03:52:49;;;;;;;13.00;6.90;;;;;;;;;;2117221;27;20050;-47
2022/01/25 03:53:53;;;;;;;15.57;7.72;;;;;;;;;;2122386;28;20078;-46
2022/01/25 03:54:54;;;;;;;20.40;7.60;;;;;;;;;;2123071;28;20130;-47
2022/01/25 03:55:55;;;;;;;14.18;6.45;;;;;;;;;;2118456;27;20126;-47
2022/01/25 03:56:56;;;;;;;13.82;6.53;;;;;;;;;;2122962;28;20114;-47
2022/01/25 03:57:57;;;;;;;17.25;8.77;;;;;;;;;;2123253;27;20039;-48
2022/01/25 03:58:58;;;;;;;15.73;7.67;;;;;;;;;;2119568;27;20708;-46
2022/01/25 04:00:00;;;;;;;14.63;7.07;;;;;;;;;;2122806;28;20043;-46
2022/01/25 04:01:01;;;;;;;14.55;8.27;;;;;;;;;;2119885;27;20078;-47
2022/01/25 04:02:03;;;;;;;17.65;8.68;;;;;;;;;;2115327;28;20077;-46
2022/01/25 04:03:10;;;;;;;18.88;7.90;;;;;;;;;;2114338;28;20081;-46
2022/01/25 04:04:15;;;;;;;21.13;8.50;;;;;;;;;;2116788;27;20279;-46
2022/01/25 04:05:22;;;;;;;19.63;7.65;;;;;;;;;;2123036;28;20314;-46
2022/01/25 04:06:23;;;;;;;16.35;8.48;;;;;;;;;;2122361;28;20287;-47
2022/01/25 04:07:31;;;;;;;16.52;7.63;;;;;;;;;;2118879;28;20039;-46
2022/01/25 04:08:33;;;;;;;19.15;8.13;;;;;;;;;;2122894;28;20077;-46
2022/01/25 04:09:36;;;;;;;18.27;8.02;;;;;;;;;;2119011;27;20044;-46
2022/01/25 04:10:37;;;;;;;18.08;8.45;;;;;;;;;;2121258;28;20103;-46
2022/01/25 04:11:38;;;;;;;19.05;9.13;;;;;;;;;;2122959;28;20135;-45
2022/01/25 04:12:39;;;;;;;19.88;9.02;;;;;;;;;;2119258;27;20518;-46
2022/01/25 04:13:40;;;;;;;20.50;9.90;;;;;;;;;;2122329;28;20039;-46
2022/01/25 04:14:41;;;;;;;20.65;9.15;;;;;;;;;;2123029;28;20362;-47
2022/01/25 04:15:45;;;;;;;23.30;9.82;;;;;;;;;;2119599;27;20125;-46
2022/01/25 04:16:55;;;;;;;20.83;8.85;;;;;;;;;;2122492;27;20122;-47
2022/01/25 04:18:17;;;;;;;16.85;7.82;;;;;;;;;;2122927;27;20058;-46
2022/01/25 04:19:26;;;;;;;16.02;7.97;;;;;;;;;;2120729;28;20358;-46
2022/01/25 04:20:32;;;;;;;14.35;6.20;;;;;;;;;;2122989;28;20043;-46
2022/01/25 04:24:39;;;;;;;15.68;7.03;;;;;;;;;;2118767;28;20637;-46
2022/01/25 04:25:49;;;;;;;16.60;7.18;;;;;;;;;;2106632;28;20345;-49
2022/01/25 04:26:50;;;;;;;16.10;6.45;;;;;;;;;;2120478;27;20569;-49
2022/01/25 04:27:55;;;;;;;21.60;6.93;;;;;;;;;;2114529;28;20051;-50
2022/01/25 04:28:57;;;;;;;15.32;6.00;;;;;;;;;;2114478;28;20089;-50
2022/01/25 04:29:58;;;;;;;14.50;6.45;;;;;;;;;;2119110;27;20441;-49
2022/01/25 04:31:00;;;;;;;15.77;6.97;;;;;;;;;;2122749;28;20558;-50
2022/01/25 04:32:01;;;;;;;12.32;6.15;;;;;;;;;;2122297;27;20492;-50
2022/01/25 04:33:05;;;;;;;16.80;7.63;;;;;;;;;;2114926;28;20040;-50
2022/01/25 04:34:11;;;;;;;16.40;7.15;;;;;;;;;;2114372;28;20173;-50
2022/01/25 04:35:26;;;;;;;15.90;7.00;;;;;;;;;;2116488;27;20126;-50
2022/01/25 04:36:53;;;;;;;12.65;6.60;;;;;;;;;;2122867;28;20220;-51
2022/01/25 04:49:03;;;;;;;12.13;5.90;;;;;;;;;;2122807;28;20701;-49
2022/01/25 04:50:05;;;;;;;14.23;5.97;;;;;;;;;;2115958;28;20177;-49
2022/01/25 04:52:34;;;;;;;16.58;7.07;;;;;;;;;;2113811;27;20044;-50
2022/01/25 04:53:44;;;;;;;12.13;6.22;;;;;;;;;;2122526;28;20039;-50
2022/01/25 04:54:52;;;;;;;17.02;6.78;;;;;;;;;;2123185;27;20815;-51
2022/01/25 04:55:59;;;;;;;14.40;6.55;;;;;;;;;;2119761;28;20152;-47
2022/01/25 04:57:16;;;;;;;15.82;7.40;;;;;;;;;;2122318;28;20045;-47
2022/01/25 04:58:23;;;;;;;14.25;6.75;;;;;;;;;;2119405;27;20619;-47
2022/01/25 04:59:30;;;;;;;16.17;8.13;;;;;;;;;;2122675;28;20225;-46
2022/01/25 05:00:32;;;;;;;15.82;6.95;;;;;;;;;;2120561;27;20135;-47
2022/01/25 05:01:35;;;;;;;13.45;6.65;;;;;;;;;;2114896;28;20416;-47
2022/01/25 05:02:46;;;;;;;14.02;7.28;;;;;;;;;;2114231;28;20047;-47
2022/01/25 05:03:58;;;;;;;14.30;7.57;;;;;;;;;;2118186;27;20035;-46
2022/01/25 05:05:04;;;;;;;15.13;6.72;;;;;;;;;;2122652;28;20071;-46
2022/01/25 05:06:10;;;;;;;14.88;5.82;;;;;;;;;;2123086;27;20082;-47
2022/01/25 05:07:26;;;;;;;16.65;7.30;;;;;;;;;;2119097;28;20145;-46
2022/01/25 05:08:35;;;;;;;16.27;6.95;;;;;;;;;;2122792;28;20560;-46
2022/01/25 05:09:37;;;;;;;14.43;7.03;;;;;;;;;;2118166;27;20121;-47
2022/01/25 05:10:48;;;;;;;16.17;7.32;;;;;;;;;;2122596;28;20455;-46
2022/01/25 05:11:50;;;;;;;16.33;7.00;;;;;;;;;;2119493;27;20649;-46
2022/01/25 05:13:04;;;;;;;14.35;7.00;;;;;;;;;;2114827;28;20483;-48
2022/01/25 05:14:17;;;;;;;17.52;7.50;;;;;;;;;;2114060;28;20538;-47
2022/01/25 05:15:23;;;;;;;;;;;;;;;;;;2114855;27;20548;-46
2022/01/25 05:16:29;;;;;;;15.45;6.72;;;;;;;;;;2114015;28;19969;-46
2022/01/25 05:17:37;;;;;;;16.45;6.90;;;;;;;;;;2117221;27;20480;-46
2022/01/25 05:18:42;;;;;;;13.95;6.90;;;;;;;;;;2114800;28;20047;-47
2022/01/25 05:22:29;;;;;;;13.90;7.05;;;;;;;;;;2114157;28;20564;-47
2022/01/25 05:23:30;;;;;;;13.48;6.65;;;;;;;;;;2115408;27;20366;-47
2022/01/25 05:24:31;;;;;;;15.57;7.30;;;;;;;;;;2121878;28;20039;-46
2022/01/25 05:25:32;;;;;;;13.00;7.13;;;;;;;;;;2122619;28;20404;-49
2022/01/25 05:26:34;;;;;;;16.60;6.82;;;;;;;;;;2119405;27;20055;-49
2022/01/25 05:27:35;;;;;;;16.33;7.30;;;;;;;;;;2122437;28;20073;-50
2022/01/25 05:28:37;;;;;;;12.75;6.40;;;;;;;;;;2122643;27;20536;-49
2022/01/25 05:29:38;;;;;;;;;;;;;;;;;;2121191;27;20099;-46
2022/01/25 05:30:39;;;;;;;15.52;6.60;;;;;;;;;;2123915;28;20364;-46
2022/01/25 05:31:40;;;;;;;15.75;7.03;;;;;;;;;;2122330;27;20126;-46
2022/01/25 05:32:41;;;;;;;12.48;6.88;;;;;;;;;;2120481;28;20043;-47
2022/01/25 05:33:42;;;;;;;14.55;7.32;;;;;;;;;;2123961;28;20130;-47
2022/01/25 05:34:43;;;;;;;14.20;7.17;;;;;;;;;;2120669;27;20047;-47
2022/01/25 05:35:44;;;;;;;16.60;7.90;;;;;;;;;;2122654;28;20043;-46
2022/01/25 05:36:45;;;;;;;15.65;8.10;;;;;;;;;;2123913;28;20047;-46
2022/01/25 05:37:46;;;;;;;17.65;7.10;;;;;;;;;;2121041;27;20445;-47
2022/01/25 05:38:47;;;;;;;20.83;8.43;;;;;;;;;;2123868;28;20127;-47
2022/01/25 05:39:49;;;;;;;18.02;7.10;;;;;;;;;;2124098;28;20047;-47
2022/01/25 05:40:58;;;;;;;15.95;8.07;;;;;;;;;;2120630;27;20122;-47
2022/01/25 05:42:13;;;;;;;16.30;8.30;;;;;;;;;;2124150;28;20135;-47
2022/01/25 05:44:41;;;;;;;14.85;7.13;;;;;;;;;;2115460;28;20176;-47
2022/01/25 05:45:57;;;;;;;12.82;5.80;;;;;;;;;;2116140;27;20067;-46
2022/01/25 05:47:05;;;;;;;14.27;6.55;;;;;;;;;;2116225;28;20134;-47
2022/01/25 05:48:07;;;;;;;12.77;6.03;;;;;;;;;;2115519;28;20092;-47
2022/01/25 05:49:08;;;;;;;14.98;7.25;;;;;;;;;;2119370;27;20370;-47
2022/01/25 05:50:09;;;;;;;13.27;6.40;;;;;;;;;;2115287;28;20146;-47
2022/01/25 05:51:11;;;;;;;12.77;5.50;;;;;;;;;;2115521;28;20639;-50
2022/01/25 05:52:12;;;;;;;16.20;7.28;;;;;;;;;;2118083;27;20131;-49
2022/01/25 05:53:13;;;;;;;15.13;6.83;;;;;;;;;;2115409;28;20408;-49
2022/01/25 05:54:14;;;;;;;14.57;6.25;;;;;;;;;;2117341;27;20138;-50
2022/01/25 05:55:15;;;;;;;15.13;7.53;;;;;;;;;;2120492;28;20513;-50
2022/01/25 05:56:16;;;;;;;15.30;6.88;;;;;;;;;;2123684;28;20130;-50
2022/01/25 05:57:17;;;;;;;15.40;7.72;;;;;;;;;;2122237;27;20043;-49
2022/01/25 05:58:19;;;;;;;17.95;7.25;;;;;;;;;;2122586;28;20074;-46
2022/01/25 05:59:20;;;;;;;13.95;6.78;;;;;;;;;;2123756;28;20469;-46
2022/01/25 06:00:22;;;;;;;14.88;6.55;;;;;;;;;;2121067;27;20496;-47
2022/01/25 06:01:23;;;;;;;14.82;7.15;;;;;;;;;;2118027;28;20130;-46
2022/01/25 06:02:27;;;;;;;14.73;7.22;;;;;;;;;;2115397;28;20464;-46
2022/01/25 06:03:28;;;;;;;14.45;7.43;;;;;;;;;;2119016;27;20126;-47
2022/01/25 06:04:29;;;;;;;15.32;7.60;;;;;;;;;;2115389;28;20048;-48
2022/01/25 06:05:31;;;;;;;16.27;7.35;;;;;;;;;;2117062;27;20503;-47
2022/01/25 06:06:32;;;;;;;16.83;8.35;;;;;;;;;;2118405;27;20043;-46
2022/01/25 06:07:33;;;;;;;15.67;6.50;;;;;;;;;;2115334;28;20123;-46
2022/01/25 06:08:34;;;;;;;16.92;7.13;;;;;;;;;;2117301;27;20121;-47
2022/01/25 06:09:35;;;;;;;15.03;6.50;;;;;;;;;;2116094;28;20055;-47
2022/01/25 06:10:37;;;;;;;15.23;7.22;;;;;;;;;;2115283;28;20054;-46
2022/01/25 06:11:38;;;;;;;16.95;8.07;;;;;;;;;;2117999;27;20043;-46
2022/01/25 06:12:42;;;;;;;15.63;7.50;;;;;;;;;;2122679;28;20039;-46
2022/01/25 06:13:43;;;;;;;13.15;6.93;;;;;;;;;;2123684;28;20077;-46
2022/01/25 06:14:44;;;;;;;22.40;7.77;;;;;;;;;;2120446;27;20039;-46
2022/01/25 06:15:46;;;;;;;15.00;6.95;;;;;;;;;;2115269;28;20383;-46
2022/01/25 06:16:47;;;;;;;16.02;8.20;;;;;;;;;;2115916;27;20047;-46
2022/01/25 06:17:49;;;;;;;15.50;7.80;;;;;;;;;;2117137;27;20134;-45
2022/01/25 06:18:50;;;;;;;13.07;6.28;;;;;;;;;;2115318;28;20055;-45
2022/01/25 06:19:51;;;;;;;17.05;7.75;;;;;;;;;;2115889;27;20128;-46
2022/01/25 06:20:52;;;;;;;17.40;7.35;;;;;;;;;;2115980;28;20134;-45
2022/01/25 06:21:53;;;;;;;14.48;7.43;;;;;;;;;;2115114;28;20491;-46
2022/01/25 06:22:54;;;;;;;15.93;7.70;;;;;;;;;;2115715;27;20135;-47
2022/01/25 06:23:55;;;;;;;12.40;6.82;;;;;;;;;;2115964;28;20563;-46
2022/01/25 06:24:56;;;;;;;17.52;8.60;;;;;;;;;;2115201;28;20126;-46
2022/01/25 06:25:58;;;;;;;14.80;7.75;;;;;;;;;;2118299;27;20473;-46
2022/01/25 06:26:59;;;;;;;15.77;7.13;;;;;;;;;;2123726;28;20122;-46
2022/01/25 06:27:59;;;;;;;15.90;7.53;;;;;;;;;;2123669;28;20061;-46
2022/01/25 06:29:01;;;;;;;14.80;6.82;;;;;;;;;;2120354;27;20039;-45
2022/01/25 06:30:03;;;;;;;12.98;6.60;;;;;;;;;;2123507;28;20409;-46
2022/01/25 06:31:04;;;;;;;14.30;7.40;;;;;;;;;;2121380;27;20126;-46
2022/01/25 06:32:06;;;;;;;13.18;7.05;;;;;;;;;;2120193;28;20051;-46
2022/01/25 06:33:08;;;;;;;;;;;;;;;;;;2123963;28;20385;-46
2022/01/25 06:34:09;;;;;;;12.65;5.75;;;;;;;;;;2123126;27;20010;-52
2022/01/25 06:35:10;;;;;;;13.23;6.43;;;;;;;;;;2121321;28;20131;-50
2022/01/25 06:36:12;;;;;;;15.65;6.65;;;;;;;;;;2123542;28;20050;-53
2022/01/25 06:37:13;;;;;;;14.57;6.38;;;;;;;;;;2119528;27;20039;-49
2022/01/25 06:38:14;;;;;;;11.15;4.78;;;;;;;;;;2123451;28;20472;-51
2022/01/25 06:39:15;;;;;;;13.52;6.47;;;;;;;;;;2123479;28;20082;-50
2022/01/25 06:40:17;;;;;;;12.93;6.35;;;;;;;;;;2120867;27;20425;-49
2022/01/25 06:41:18;;;;;;;15.98;6.55;;;;;;;;;;2114925;28;20572;-49
2022/01/25 06:42:19;;;;;;;8.65;3.90;;;;;;;;;;2116394;27;20078;-49
2022/01/25 06:43:20;;;;;;;11.15;5.43;;;;;;;;;;2119905;27;20072;-49
2022/01/25 06:44:22;;;;;;;7.43;3.72;;;;;;;;;;2123647;28;20074;-45
2022/01/25 06:45:24;;;;;;;10.55;4.82;;;;;;;;;;2122513;27;20043;-46
2022/01/25 06:46:27;;;;;;;11.48;6.40;;;;;;;;;;2121482;28;20096;-47
2022/01/25 06:47:29;;;;;;;11.02;6.05;;;;;;;;;;2123579;28;20092;-48
2022/01/25 06:48:30;;;;;;;12.50;5.75;;;;;;;;;;2121542;27;20075;-46
2022/01/25 06:49:31;;;;;;;15.20;6.13;;;;;;;;;;2115406;28;20071;-46
2022/01/25 06:50:43;;;;;;;13.30;5.90;;;;;;;;;;2114405;27;20516;-46
2022/01/25 06:51:44;;;;;;;11.07;5.43;;;;;;;;;;2120766;27;20043;-46
2022/01/25 06:52:45;;;;;;;15.27;5.65;;;;;;;;;;2123501;28;20055;-46
2022/01/25 06:54:03;;;;;;;11.32;5.78;;;;;;;;;;2118993;27;20036;-47
2022/01/25 06:55:04;;;;;;;11.38;5.10;;;;;;;;;;2122141;28;20556;-46
2022/01/25 06:56:06;;;;;;;14.57;6.07;;;;;;;;;;2123316;28;20095;-47
2022/01/25 06:57:07;;;;;;;;;;;;;;;;;;2120665;27;20569;-46
2022/01/25 06:58:08;;;;;;;12.85;5.88;;;;;;;;;;2123683;28;19927;-46
2022/01/25 06:59:10;;;;;;;13.98;5.32;;;;;;;;;;2123533;28;20138;-46
2022/01/25 07:00:12;;;;;;;12.70;5.18;;;;;;;;;;2120238;27;20122;-46
2022/01/25 07:01:13;;;;;;;13.13;6.20;;;;;;;;;;2119595;28;20185;-46
2022/01/25 07:02:15;;;;;;;11.68;6.07;;;;;;;;;;2114029;28;20488;-46
2022/01/25 07:03:16;;;;;;;;;;;;;;;;;;2120488;28;20054;-46
2022/01/25 07:04:17;;;;;;;9.32;4.55;;;;;;;;;;2123327;28;19931;-46
2022/01/25 07:05:18;;;;;;;8.75;4.53;;;;;;;;;;2120351;27;20098;-46
2022/01/25 07:06:19;;;;;;;9.25;3.92;;;;;;;;;;2120916;28;20121;-46
2022/01/25 07:07:20;;;;;;;11.17;4.53;;;;;;;;;;2122745;28;20051;-46
2022/01/25 07:08:21;;;;;;;10.55;5.13;;;;;;;;;;2117636;27;20130;-47
2022/01/25 07:09:28;;;;;;;11.10;5.60;;;;;;;;;;2114834;28;20067;-46
2022/01/25 07:10:29;;;;;;;10.65;5.05;;;;;;;;;;2114894;28;20056;-48
2022/01/25 07:11:30;;;;;;;10.50;4.65;;;;;;;;;;2117806;27;20358;-47
2022/01/25 07:12:32;;;;;;;7.80;4.20;;;;;;;;;;2114783;28;20051;-46
2022/01/25 07:13:33;;;;;;;10.40;5.18;;;;;;;;;;2116950;27;20078;-46
2022/01/25 07:14:34;;;;;;;9.10;5.03;;;;;;;;;;2119657;28;20043;-46
2022/01/25 07:15:36;;;;;;;12.18;5.57;;;;;;;;;;2123170;28;20111;-48
2022/01/25 07:16:36;;;;;;;10.65;5.32;;;;;;;;;;2122948;27;20645;-48
2022/01/25 07:17:38;;;;;;;13.68;6.45;;;;;;;;;;2121588;28;20047;-46
2022/01/25 07:18:40;;;;;;;11.07;5.78;;;;;;;;;;2123442;28;20057;-47
2022/01/25 07:19:41;;;;;;;8.18;4.65;;;;;;;;;;2121036;27;20122;-50
2022/01/25 07:20:42;;;;;;;11.00;5.10;;;;;;;;;;2122526;28;20477;-48
2022/01/25 07:21:48;;;;;;;9.30;4.47;;;;;;;;;;2123396;28;20197;-47
2022/01/25 07:22:49;;;;;;;12.82;4.88;;;;;;;;;;2121348;27;20367;-46
2022/01/25 07:23:50;;;;;;;12.10;6.17;;;;;;;;;;2123426;28;20442;-47
2022/01/25 07:24:51;;;;;;;13.40;5.82;;;;;;;;;;2123886;27;20373;-50
2022/01/25 07:25:53;;;;;;;12.63;6.07;;;;;;;;;;2120376;27;20083;-50
2022/01/25 07:26:53;;;;;;;8.75;3.58;;;;;;;;;;2123222;28;20047;-50
2022/01/25 07:28:00;;;;;;;12.93;6.03;;;;;;;;;;2121446;27;20411;-49